Indianola, Utah
Current Conditions -  °F | °C
As of 12:50 PM on Wednesday 26 Nov 2014 (Local Time) from KPVU Reporting Station
Clear Clear  
Wind Chill: 44°   Ceiling: Unl
Heat Index: 46°   Visibility: 15mi
Dew Point: 30°   Wind: 5mph
Humidity: 53%   Direction: NA
Pressure: 30.41"   Gusts: NA
Location:  39.7497°N, 111.442°W
Report Text: KPVU 261950Z VRB04KT 15SM SKC 08/M01 A3041
Loading
Personal Weather Stations






























Interactive Weather Map New forecast layout! Learn more

10-Day Weather Forecast

Advertisements
Track Severe Weather on mobile